sensor_id;sensor_type;location;lat;lon;timestamp;P1;durP1;ratioP1;P2;durP2;ratioP2
28373;SDS011;15616;40.148;-102.718;2023-03-03T00:01:13;7.75;;;3.10;;
28373;SDS011;15616;40.148;-102.718;2023-03-03T00:03:39;12.02;;;3.30;;
28373;SDS011;15616;40.148;-102.718;2023-03-03T00:06:06;9.15;;;3.40;;
28373;SDS011;15616;40.148;-102.718;2023-03-03T00:08:35;7.75;;;3.10;;
28373;SDS011;15616;40.148;-102.718;2023-03-03T00:11:01;11.75;;;3.08;;
28373;SDS011;15616;40.148;-102.718;2023-03-03T00:13:30;9.00;;;3.03;;
28373;SDS011;15616;40.148;-102.718;2023-03-03T00:16:12;6.93;;;2.85;;
28373;SDS011;15616;40.148;-102.718;2023-03-03T00:18:41;7.32;;;3.25;;
28373;SDS011;15616;40.148;-102.718;2023-03-03T00:34:42;9.88;;;3.08;;
28373;SDS011;15616;40.148;-102.718;2023-03-03T00:37:41;7.88;;;3.15;;
28373;SDS011;15616;40.148;-102.718;2023-03-03T00:40:15;7.13;;;3.13;;
28373;SDS011;15616;40.148;-102.718;2023-03-03T00:42:48;15.18;;;3.75;;
28373;SDS011;15616;40.148;-102.718;2023-03-03T00:48:22;8.90;;;3.30;;
28373;SDS011;15616;40.148;-102.718;2023-03-03T00:50:53;13.18;;;3.60;;
28373;SDS011;15616;40.148;-102.718;2023-03-03T00:53:22;9.27;;;3.33;;
28373;SDS011;15616;40.148;-102.718;2023-03-03T00:55:49;12.60;;;3.33;;
28373;SDS011;15616;40.148;-102.718;2023-03-03T00:58:16;10.25;;;3.22;;
28373;SDS011;15616;40.148;-102.718;2023-03-03T01:00:46;8.02;;;3.15;;
28373;SDS011;15616;40.148;-102.718;2023-03-03T01:03:14;8.45;;;2.83;;
28373;SDS011;15616;40.148;-102.718;2023-03-03T01:05:42;9.35;;;3.20;;
28373;SDS011;15616;40.148;-102.718;2023-03-03T01:08:08;9.38;;;2.88;;
28373;SDS011;15616;40.148;-102.718;2023-03-03T01:10:35;8.52;;;3.25;;
28373;SDS011;15616;40.148;-102.718;2023-03-03T01:13:05;11.68;;;3.08;;
28373;SDS011;15616;40.148;-102.718;2023-03-03T01:15:32;6.50;;;2.95;;
28373;SDS011;15616;40.148;-102.718;2023-03-03T01:17:58;8.10;;;3.33;;
28373;SDS011;15616;40.148;-102.718;2023-03-03T01:20:24;9.60;;;3.25;;
28373;SDS011;15616;40.148;-102.718;2023-03-03T01:22:49;7.55;;;3.00;;
28373;SDS011;15616;40.148;-102.718;2023-03-03T01:25:15;5.97;;;2.72;;
28373;SDS011;15616;40.148;-102.718;2023-03-03T01:27:41;10.98;;;3.28;;
28373;SDS011;15616;40.148;-102.718;2023-03-03T01:30:08;10.00;;;3.42;;
28373;SDS011;15616;40.148;-102.718;2023-03-03T01:32:34;7.00;;;3.00;;
28373;SDS011;15616;40.148;-102.718;2023-03-03T01:35:00;10.95;;;3.17;;
28373;SDS011;15616;40.148;-102.718;2023-03-03T01:37:26;7.18;;;2.78;;
28373;SDS011;15616;40.148;-102.718;2023-03-03T01:39:52;10.73;;;3.38;;
28373;SDS011;15616;40.148;-102.718;2023-03-03T01:42:19;7.63;;;2.83;;
28373;SDS011;15616;40.148;-102.718;2023-03-03T01:44:45;11.30;;;3.15;;
28373;SDS011;15616;40.148;-102.718;2023-03-03T01:47:14;8.07;;;3.28;;
28373;SDS011;15616;40.148;-102.718;2023-03-03T01:49:57;8.95;;;3.15;;
28373;SDS011;15616;40.148;-102.718;2023-03-03T01:52:32;10.18;;;2.80;;
28373;SDS011;15616;40.148;-102.718;2023-03-03T01:55:04;10.97;;;3.23;;
28373;SDS011;15616;40.148;-102.718;2023-03-03T01:57:36;6.22;;;3.10;;
28373;SDS011;15616;40.148;-102.718;2023-03-03T02:00:10;7.60;;;3.08;;
28373;SDS011;15616;40.148;-102.718;2023-03-03T02:02:37;7.03;;;3.03;;
28373;SDS011;15616;40.148;-102.718;2023-03-03T02:05:05;7.22;;;3.08;;
28373;SDS011;15616;40.148;-102.718;2023-03-03T02:07:31;7.95;;;2.60;;
28373;SDS011;15616;40.148;-102.718;2023-03-03T02:09:58;9.98;;;3.25;;
28373;SDS011;15616;40.148;-102.718;2023-03-03T02:12:35;9.23;;;2.92;;
28373;SDS011;15616;40.148;-102.718;2023-03-03T02:15:14;8.15;;;3.00;;
28373;SDS011;15616;40.148;-102.718;2023-03-03T02:17:49;5.80;;;2.50;;
28373;SDS011;15616;40.148;-102.718;2023-03-03T02:20:40;8.38;;;3.22;;
28373;SDS011;15616;40.148;-102.718;2023-03-03T02:23:17;7.13;;;2.85;;
28373;SDS011;15616;40.148;-102.718;2023-03-03T02:26:08;10.02;;;3.22;;
28373;SDS011;15616;40.148;-102.718;2023-03-03T02:28:39;5.80;;;2.75;;
28373;SDS011;15616;40.148;-102.718;2023-03-03T02:31:10;7.07;;;3.00;;
28373;SDS011;15616;40.148;-102.718;2023-03-03T02:33:43;6.65;;;2.83;;
28373;SDS011;15616;40.148;-102.718;2023-03-03T02:36:15;6.70;;;2.75;;
28373;SDS011;15616;40.148;-102.718;2023-03-03T02:44:26;9.93;;;3.00;;
28373;SDS011;15616;40.148;-102.718;2023-03-03T02:46:55;6.75;;;2.78;;
28373;SDS011;15616;40.148;-102.718;2023-03-03T02:49:23;9.10;;;2.92;;
28373;SDS011;15616;40.148;-102.718;2023-03-03T02:51:50;6.82;;;2.88;;
28373;SDS011;15616;40.148;-102.718;2023-03-03T02:54:18;6.10;;;2.83;;
28373;SDS011;15616;40.148;-102.718;2023-03-03T02:56:45;8.55;;;3.38;;
28373;SDS011;15616;40.148;-102.718;2023-03-03T02:59:11;10.18;;;3.22;;
28373;SDS011;15616;40.148;-102.718;2023-03-03T03:01:38;6.70;;;2.65;;
28373;SDS011;15616;40.148;-102.718;2023-03-03T03:04:16;9.05;;;2.83;;
28373;SDS011;15616;40.148;-102.718;2023-03-03T03:06:44;8.77;;;3.10;;
28373;SDS011;15616;40.148;-102.718;2023-03-03T03:09:11;6.53;;;2.67;;
28373;SDS011;15616;40.148;-102.718;2023-03-03T03:11:38;9.73;;;2.92;;
28373;SDS011;15616;40.148;-102.718;2023-03-03T03:14:05;5.97;;;2.72;;
28373;SDS011;15616;40.148;-102.718;2023-03-03T03:16:32;6.93;;;2.63;;
28373;SDS011;15616;40.148;-102.718;2023-03-03T03:18:59;5.55;;;2.55;;
28373;SDS011;15616;40.148;-102.718;2023-03-03T03:21:26;6.28;;;2.78;;
28373;SDS011;15616;40.148;-102.718;2023-03-03T03:23:52;8.43;;;2.67;;
28373;SDS011;15616;40.148;-102.718;2023-03-03T03:26:18;7.35;;;2.80;;
28373;SDS011;15616;40.148;-102.718;2023-03-03T03:28:45;6.50;;;2.60;;
28373;SDS011;15616;40.148;-102.718;2023-03-03T03:31:12;6.57;;;2.80;;
28373;SDS011;15616;40.148;-102.718;2023-03-03T03:33:38;8.32;;;2.63;;
28373;SDS011;15616;40.148;-102.718;2023-03-03T03:36:04;8.25;;;2.72;;
28373;SDS011;15616;40.148;-102.718;2023-03-03T03:38:31;7.28;;;2.85;;
28373;SDS011;15616;40.148;-102.718;2023-03-03T03:40:58;7.05;;;2.50;;
28373;SDS011;15616;40.148;-102.718;2023-03-03T03:43:24;6.45;;;2.80;;
28373;SDS011;15616;40.148;-102.718;2023-03-03T03:45:50;6.47;;;2.75;;
28373;SDS011;15616;40.148;-102.718;2023-03-03T03:48:16;6.75;;;2.58;;
28373;SDS011;15616;40.148;-102.718;2023-03-03T03:50:45;6.35;;;2.72;;
28373;SDS011;15616;40.148;-102.718;2023-03-03T03:53:11;9.05;;;2.88;;
28373;SDS011;15616;40.148;-102.718;2023-03-03T03:55:38;7.80;;;3.08;;
28373;SDS011;15616;40.148;-102.718;2023-03-03T03:58:03;10.18;;;2.92;;
28373;SDS011;15616;40.148;-102.718;2023-03-03T04:00:29;4.68;;;2.58;;
28373;SDS011;15616;40.148;-102.718;2023-03-03T04:02:55;8.65;;;2.65;;
28373;SDS011;15616;40.148;-102.718;2023-03-03T04:05:21;6.53;;;2.70;;
28373;SDS011;15616;40.148;-102.718;2023-03-03T04:07:47;5.63;;;2.47;;
28373;SDS011;15616;40.148;-102.718;2023-03-03T04:10:13;6.45;;;2.60;;
28373;SDS011;15616;40.148;-102.718;2023-03-03T04:12:39;8.40;;;2.90;;
28373;SDS011;15616;40.148;-102.718;2023-03-03T04:15:09;6.20;;;2.60;;
28373;SDS011;15616;40.148;-102.718;2023-03-03T04:17:37;5.85;;;2.90;;
28373;SDS011;15616;40.148;-102.718;2023-03-03T04:20:03;8.65;;;2.67;;
28373;SDS011;15616;40.148;-102.718;2023-03-03T04:22:30;6.68;;;2.92;;
28373;SDS011;15616;40.148;-102.718;2023-03-03T04:25:00;6.15;;;2.58;;
28373;SDS011;15616;40.148;-102.718;2023-03-03T04:27:30;7.00;;;2.65;;
28373;SDS011;15616;40.148;-102.718;2023-03-03T04:30:00;6.80;;;2.70;;
28373;SDS011;15616;40.148;-102.718;2023-03-03T04:32:27;5.13;;;2.63;;
28373;SDS011;15616;40.148;-102.718;2023-03-03T04:34:54;5.22;;;2.38;;
28373;SDS011;15616;40.148;-102.718;2023-03-03T04:37:20;6.57;;;2.97;;
28373;SDS011;15616;40.148;-102.718;2023-03-03T04:39:46;6.38;;;2.75;;
28373;SDS011;15616;40.148;-102.718;2023-03-03T04:42:12;7.53;;;3.03;;
28373;SDS011;15616;40.148;-102.718;2023-03-03T04:44:38;6.50;;;2.53;;
28373;SDS011;15616;40.148;-102.718;2023-03-03T04:47:04;7.45;;;2.83;;
28373;SDS011;15616;40.148;-102.718;2023-03-03T04:49:30;7.50;;;2.35;;
28373;SDS011;15616;40.148;-102.718;2023-03-03T04:51:56;7.47;;;2.55;;
28373;SDS011;15616;40.148;-102.718;2023-03-03T04:54:21;7.32;;;2.95;;
28373;SDS011;15616;40.148;-102.718;2023-03-03T04:56:47;7.00;;;2.70;;
28373;SDS011;15616;40.148;-102.718;2023-03-03T04:59:14;6.40;;;2.58;;
28373;SDS011;15616;40.148;-102.718;2023-03-03T05:01:40;8.43;;;2.65;;
28373;SDS011;15616;40.148;-102.718;2023-03-03T05:04:06;6.03;;;2.80;;
28373;SDS011;15616;40.148;-102.718;2023-03-03T05:06:32;5.60;;;2.30;;
28373;SDS011;15616;40.148;-102.718;2023-03-03T05:08:58;7.60;;;2.65;;
28373;SDS011;15616;40.148;-102.718;2023-03-03T05:11:24;7.05;;;2.85;;
28373;SDS011;15616;40.148;-102.718;2023-03-03T05:13:50;6.03;;;2.65;;
28373;SDS011;15616;40.148;-102.718;2023-03-03T05:16:16;6.72;;;2.72;;
28373;SDS011;15616;40.148;-102.718;2023-03-03T05:18:42;5.47;;;2.50;;
28373;SDS011;15616;40.148;-102.718;2023-03-03T05:21:09;7.80;;;2.67;;
28373;SDS011;15616;40.148;-102.718;2023-03-03T05:23:36;6.43;;;2.70;;
28373;SDS011;15616;40.148;-102.718;2023-03-03T05:26:02;5.00;;;2.40;;
28373;SDS011;15616;40.148;-102.718;2023-03-03T05:28:28;7.03;;;2.55;;
28373;SDS011;15616;40.148;-102.718;2023-03-03T05:30:54;6.47;;;2.70;;
28373;SDS011;15616;40.148;-102.718;2023-03-03T05:33:20;7.35;;;2.80;;
28373;SDS011;15616;40.148;-102.718;2023-03-03T05:35:46;8.85;;;3.28;;
28373;SDS011;15616;40.148;-102.718;2023-03-03T05:38:17;4.93;;;2.83;;
28373;SDS011;15616;40.148;-102.718;2023-03-03T05:40:43;4.93;;;2.38;;
28373;SDS011;15616;40.148;-102.718;2023-03-03T05:43:08;5.80;;;2.60;;
28373;SDS011;15616;40.148;-102.718;2023-03-03T05:45:34;7.13;;;3.10;;
28373;SDS011;15616;40.148;-102.718;2023-03-03T05:48:00;6.43;;;3.08;;
28373;SDS011;15616;40.148;-102.718;2023-03-03T05:50:27;5.45;;;2.50;;
28373;SDS011;15616;40.148;-102.718;2023-03-03T05:52:53;5.70;;;2.60;;
28373;SDS011;15616;40.148;-102.718;2023-03-03T05:55:19;6.55;;;2.55;;
28373;SDS011;15616;40.148;-102.718;2023-03-03T05:57:45;6.00;;;2.58;;
28373;SDS011;15616;40.148;-102.718;2023-03-03T06:00:11;8.02;;;3.00;;
28373;SDS011;15616;40.148;-102.718;2023-03-03T06:02:39;6.38;;;2.92;;
28373;SDS011;15616;40.148;-102.718;2023-03-03T06:05:05;7.00;;;2.67;;
28373;SDS011;15616;40.148;-102.718;2023-03-03T06:07:32;13.57;;;2.97;;
28373;SDS011;15616;40.148;-102.718;2023-03-03T06:09:58;9.38;;;3.00;;
28373;SDS011;15616;40.148;-102.718;2023-03-03T06:12:24;12.55;;;3.33;;
28373;SDS011;15616;40.148;-102.718;2023-03-03T06:14:50;13.48;;;3.00;;
28373;SDS011;15616;40.148;-102.718;2023-03-03T06:17:16;6.97;;;2.90;;
28373;SDS011;15616;40.148;-102.718;2023-03-03T06:19:42;10.15;;;2.90;;
28373;SDS011;15616;40.148;-102.718;2023-03-03T06:22:08;8.73;;;2.58;;
28373;SDS011;15616;40.148;-102.718;2023-03-03T06:24:34;15.27;;;3.30;;
28373;SDS011;15616;40.148;-102.718;2023-03-03T06:27:00;7.72;;;2.58;;
28373;SDS011;15616;40.148;-102.718;2023-03-03T06:29:26;13.82;;;3.17;;
28373;SDS011;15616;40.148;-102.718;2023-03-03T06:31:53;16.10;;;2.95;;
28373;SDS011;15616;40.148;-102.718;2023-03-03T06:34:19;13.05;;;2.90;;
28373;SDS011;15616;40.148;-102.718;2023-03-03T06:36:45;16.65;;;3.28;;
28373;SDS011;15616;40.148;-102.718;2023-03-03T06:39:11;15.57;;;3.38;;
28373;SDS011;15616;40.148;-102.718;2023-03-03T06:41:37;11.10;;;3.20;;
28373;SDS011;15616;40.148;-102.718;2023-03-03T06:44:03;15.65;;;3.22;;
28373;SDS011;15616;40.148;-102.718;2023-03-03T06:46:29;16.50;;;3.30;;
28373;SDS011;15616;40.148;-102.718;2023-03-03T06:48:54;11.40;;;2.85;;
28373;SDS011;15616;40.148;-102.718;2023-03-03T06:53:49;10.35;;;3.30;;
28373;SDS011;15616;40.148;-102.718;2023-03-03T06:56:19;13.43;;;3.05;;
28373;SDS011;15616;40.148;-102.718;2023-03-03T06:58:45;11.40;;;2.80;;
28373;SDS011;15616;40.148;-102.718;2023-03-03T07:01:12;8.45;;;3.55;;
28373;SDS011;15616;40.148;-102.718;2023-03-03T07:03:41;11.93;;;3.00;;
28373;SDS011;15616;40.148;-102.718;2023-03-03T07:06:13;17.85;;;3.28;;
28373;SDS011;15616;40.148;-102.718;2023-03-03T07:08:49;15.60;;;3.63;;
28373;SDS011;15616;40.148;-102.718;2023-03-03T07:11:18;9.70;;;2.88;;
28373;SDS011;15616;40.148;-102.718;2023-03-03T07:13:47;18.58;;;3.20;;
28373;SDS011;15616;40.148;-102.718;2023-03-03T07:16:18;13.23;;;3.60;;
28373;SDS011;15616;40.148;-102.718;2023-03-03T07:21:22;16.52;;;4.00;;
28373;SDS011;15616;40.148;-102.718;2023-03-03T07:23:54;11.30;;;3.53;;
28373;SDS011;15616;40.148;-102.718;2023-03-03T07:26:30;19.10;;;3.63;;
28373;SDS011;15616;40.148;-102.718;2023-03-03T07:29:02;20.25;;;4.03;;
28373;SDS011;15616;40.148;-102.718;2023-03-03T07:31:57;27.23;;;3.88;;
28373;SDS011;15616;40.148;-102.718;2023-03-03T07:37:00;18.15;;;3.83;;
28373;SDS011;15616;40.148;-102.718;2023-03-03T07:42:14;12.90;;;3.35;;
28373;SDS011;15616;40.148;-102.718;2023-03-03T07:44:43;24.23;;;3.58;;
28373;SDS011;15616;40.148;-102.718;2023-03-03T07:49:43;17.50;;;4.70;;
28373;SDS011;15616;40.148;-102.718;2023-03-03T07:52:22;50.50;;;5.32;;
28373;SDS011;15616;40.148;-102.718;2023-03-03T07:54:53;39.05;;;4.10;;
28373;SDS011;15616;40.148;-102.718;2023-03-03T07:57:22;27.88;;;4.15;;
28373;SDS011;15616;40.148;-102.718;2023-03-03T08:01:18;22.60;;;4.45;;
28373;SDS011;15616;40.148;-102.718;2023-03-03T08:02:57;27.23;;;4.10;;
28373;SDS011;15616;40.148;-102.718;2023-03-03T08:05:29;20.08;;;3.92;;
28373;SDS011;15616;40.148;-102.718;2023-03-03T08:08:18;26.08;;;4.35;;
28373;SDS011;15616;40.148;-102.718;2023-03-03T08:10:58;22.45;;;3.92;;
28373;SDS011;15616;40.148;-102.718;2023-03-03T08:18:45;22.05;;;4.10;;
28373;SDS011;15616;40.148;-102.718;2023-03-03T08:21:22;17.40;;;3.72;;
28373;SDS011;15616;40.148;-102.718;2023-03-03T08:23:49;16.17;;;3.55;;
28373;SDS011;15616;40.148;-102.718;2023-03-03T08:26:18;22.20;;;3.83;;
28373;SDS011;15616;40.148;-102.718;2023-03-03T08:28:45;13.48;;;3.40;;
28373;SDS011;15616;40.148;-102.718;2023-03-03T08:31:11;11.02;;;3.30;;
28373;SDS011;15616;40.148;-102.718;2023-03-03T08:33:37;17.80;;;3.60;;
28373;SDS011;15616;40.148;-102.718;2023-03-03T08:36:05;16.88;;;3.47;;
28373;SDS011;15616;40.148;-102.718;2023-03-03T08:38:31;18.10;;;3.13;;
28373;SDS011;15616;40.148;-102.718;2023-03-03T08:40:57;17.67;;;3.65;;
28373;SDS011;15616;40.148;-102.718;2023-03-03T08:43:24;28.20;;;3.83;;
28373;SDS011;15616;40.148;-102.718;2023-03-03T08:45:52;14.15;;;3.97;;
28373;SDS011;15616;40.148;-102.718;2023-03-03T08:48:22;27.40;;;4.72;;
28373;SDS011;15616;40.148;-102.718;2023-03-03T08:50:48;11.50;;;3.72;;
28373;SDS011;15616;40.148;-102.718;2023-03-03T08:53:14;12.90;;;3.22;;
28373;SDS011;15616;40.148;-102.718;2023-03-03T08:55:40;19.15;;;3.75;;
28373;SDS011;15616;40.148;-102.718;2023-03-03T08:58:07;21.27;;;3.67;;
28373;SDS011;15616;40.148;-102.718;2023-03-03T09:00:33;22.50;;;3.45;;
28373;SDS011;15616;40.148;-102.718;2023-03-03T09:02:59;21.85;;;3.92;;
28373;SDS011;15616;40.148;-102.718;2023-03-03T09:05:26;16.15;;;3.42;;
28373;SDS011;15616;40.148;-102.718;2023-03-03T09:07:53;17.75;;;3.75;;
28373;SDS011;15616;40.148;-102.718;2023-03-03T09:10:20;23.00;;;3.67;;
28373;SDS011;15616;40.148;-102.718;2023-03-03T09:12:59;14.70;;;3.30;;
28373;SDS011;15616;40.148;-102.718;2023-03-03T09:15:36;18.70;;;3.60;;
28373;SDS011;15616;40.148;-102.718;2023-03-03T09:18:13;17.40;;;3.70;;
28373;SDS011;15616;40.148;-102.718;2023-03-03T09:20:40;14.82;;;3.42;;
28373;SDS011;15616;40.148;-102.718;2023-03-03T09:23:42;16.60;;;3.67;;
28373;SDS011;15616;40.148;-102.718;2023-03-03T09:26:24;16.27;;;3.83;;
28373;SDS011;15616;40.148;-102.718;2023-03-03T09:28:55;10.70;;;3.25;;
28373;SDS011;15616;40.148;-102.718;2023-03-03T09:31:42;20.30;;;3.80;;
28373;SDS011;15616;40.148;-102.718;2023-03-03T09:37:01;19.83;;;3.47;;
28373;SDS011;15616;40.148;-102.718;2023-03-03T09:39:39;13.50;;;3.17;;
28373;SDS011;15616;40.148;-102.718;2023-03-03T09:56:12;27.17;;;4.03;;
28373;SDS011;15616;40.148;-102.718;2023-03-03T10:04:21;28.02;;;4.45;;
28373;SDS011;15616;40.148;-102.718;2023-03-03T10:12:32;24.25;;;4.38;;
28373;SDS011;15616;40.148;-102.718;2023-03-03T10:26:02;33.97;;;5.38;;
28373;SDS011;15616;40.148;-102.718;2023-03-03T10:33:56;36.15;;;4.55;;
28373;SDS011;15616;40.148;-102.718;2023-03-03T10:50:16;19.27;;;3.80;;
28373;SDS011;15616;40.148;-102.718;2023-03-03T10:55:42;13.88;;;3.10;;
28373;SDS011;15616;40.148;-102.718;2023-03-03T11:01:10;26.08;;;3.45;;
28373;SDS011;15616;40.148;-102.718;2023-03-03T11:12:18;31.00;;;3.97;;
28373;SDS011;15616;40.148;-102.718;2023-03-03T11:15:06;26.88;;;4.15;;
28373;SDS011;15616;40.148;-102.718;2023-03-03T11:28:39;17.63;;;3.85;;
28373;SDS011;15616;40.148;-102.718;2023-03-03T11:36:35;52.05;;;5.18;;
28373;SDS011;15616;40.148;-102.718;2023-03-03T11:39:10;29.33;;;4.90;;
28373;SDS011;15616;40.148;-102.718;2023-03-03T11:44:26;56.08;;;5.15;;
28373;SDS011;15616;40.148;-102.718;2023-03-03T11:52:32;61.70;;;7.22;;
28373;SDS011;15616;40.148;-102.718;2023-03-03T11:55:20;62.40;;;6.95;;
28373;SDS011;15616;40.148;-102.718;2023-03-03T11:58:03;45.65;;;5.55;;
28373;SDS011;15616;40.148;-102.718;2023-03-03T12:01:03;47.92;;;6.15;;
28373;SDS011;15616;40.148;-102.718;2023-03-03T12:03:44;44.80;;;5.93;;
28373;SDS011;15616;40.148;-102.718;2023-03-03T12:11:47;42.95;;;5.25;;
28373;SDS011;15616;40.148;-102.718;2023-03-03T12:14:29;36.10;;;5.28;;
28373;SDS011;15616;40.148;-102.718;2023-03-03T12:17:32;30.33;;;4.80;;
28373;SDS011;15616;40.148;-102.718;2023-03-03T12:22:56;42.95;;;5.22;;
28373;SDS011;15616;40.148;-102.718;2023-03-03T12:25:41;31.48;;;4.97;;
28373;SDS011;15616;40.148;-102.718;2023-03-03T12:28:24;41.38;;;5.53;;
28373;SDS011;15616;40.148;-102.718;2023-03-03T12:31:20;41.60;;;5.10;;
28373;SDS011;15616;40.148;-102.718;2023-03-03T12:36:46;45.60;;;5.22;;
28373;SDS011;15616;40.148;-102.718;2023-03-03T12:42:19;52.28;;;5.97;;
28373;SDS011;15616;40.148;-102.718;2023-03-03T12:47:44;37.50;;;4.80;;
28373;SDS011;15616;40.148;-102.718;2023-03-03T12:53:29;44.17;;;5.47;;
28373;SDS011;15616;40.148;-102.718;2023-03-03T12:56:03;41.63;;;4.70;;
28373;SDS011;15616;40.148;-102.718;2023-03-03T12:58:54;52.17;;;5.05;;
28373;SDS011;15616;40.148;-102.718;2023-03-03T13:01:44;53.55;;;6.50;;
28373;SDS011;15616;40.148;-102.718;2023-03-03T13:07:56;36.47;;;4.85;;
28373;SDS011;15616;40.148;-102.718;2023-03-03T13:15:22;24.85;;;3.67;;
28373;SDS011;15616;40.148;-102.718;2023-03-03T13:23:45;23.13;;;4.07;;
28373;SDS011;15616;40.148;-102.718;2023-03-03T13:31:59;15.43;;;3.55;;
28373;SDS011;15616;40.148;-102.718;2023-03-03T13:34:36;22.55;;;3.90;;
28373;SDS011;15616;40.148;-102.718;2023-03-03T13:37:34;28.48;;;4.53;;
28373;SDS011;15616;40.148;-102.718;2023-03-03T13:42:57;31.58;;;4.90;;
28373;SDS011;15616;40.148;-102.718;2023-03-03T13:45:47;32.38;;;5.03;;
28373;SDS011;15616;40.148;-102.718;2023-03-03T13:54:03;42.42;;;5.40;;
28373;SDS011;15616;40.148;-102.718;2023-03-03T13:56:55;47.33;;;5.95;;
28373;SDS011;15616;40.148;-102.718;2023-03-03T14:05:03;42.15;;;4.90;;
28373;SDS011;15616;40.148;-102.718;2023-03-03T14:07:58;36.33;;;4.57;;
28373;SDS011;15616;40.148;-102.718;2023-03-03T14:13:22;27.60;;;3.72;;
28373;SDS011;15616;40.148;-102.718;2023-03-03T14:18:39;36.63;;;4.50;;
28373;SDS011;15616;40.148;-102.718;2023-03-03T14:24:11;30.88;;;4.20;;
28373;SDS011;15616;40.148;-102.718;2023-03-03T14:26:44;22.77;;;4.28;;
28373;SDS011;15616;40.148;-102.718;2023-03-03T14:31:54;44.15;;;4.97;;
28373;SDS011;15616;40.148;-102.718;2023-03-03T14:36:48;31.83;;;4.93;;
28373;SDS011;15616;40.148;-102.718;2023-03-03T14:39:34;32.50;;;4.68;;
28373;SDS011;15616;40.148;-102.718;2023-03-03T14:44:37;40.15;;;5.78;;
28373;SDS011;15616;40.148;-102.718;2023-03-03T14:47:23;47.88;;;5.68;;
28373;SDS011;15616;40.148;-102.718;2023-03-03T14:49:52;49.78;;;5.65;;
28373;SDS011;15616;40.148;-102.718;2023-03-03T14:52:22;57.42;;;6.80;;
28373;SDS011;15616;40.148;-102.718;2023-03-03T14:54:52;58.70;;;5.22;;
28373;SDS011;15616;40.148;-102.718;2023-03-03T14:57:39;50.30;;;5.90;;
28373;SDS011;15616;40.148;-102.718;2023-03-03T15:05:20;37.38;;;4.50;;
28373;SDS011;15616;40.148;-102.718;2023-03-03T15:07:57;33.15;;;4.55;;
28373;SDS011;15616;40.148;-102.718;2023-03-03T15:10:35;35.97;;;4.93;;
28373;SDS011;15616;40.148;-102.718;2023-03-03T15:18:28;32.58;;;4.60;;
28373;SDS011;15616;40.148;-102.718;2023-03-03T15:23:43;36.22;;;4.82;;
28373;SDS011;15616;40.148;-102.718;2023-03-03T15:28:55;32.92;;;4.35;;
28373;SDS011;15616;40.148;-102.718;2023-03-03T15:31:48;36.30;;;5.00;;
28373;SDS011;15616;40.148;-102.718;2023-03-03T15:37:17;38.63;;;4.88;;
28373;SDS011;15616;40.148;-102.718;2023-03-03T15:54:29;31.70;;;4.00;;
28373;SDS011;15616;40.148;-102.718;2023-03-03T16:00:13;30.65;;;4.18;;
28373;SDS011;15616;40.148;-102.718;2023-03-03T16:02:55;22.23;;;3.63;;
28373;SDS011;15616;40.148;-102.718;2023-03-03T16:08:18;21.67;;;3.33;;
28373;SDS011;15616;40.148;-102.718;2023-03-03T16:11:12;24.70;;;3.72;;
28373;SDS011;15616;40.148;-102.718;2023-03-03T16:24:21;29.65;;;4.03;;
28373;SDS011;15616;40.148;-102.718;2023-03-03T16:27:39;24.63;;;3.80;;
28373;SDS011;15616;40.148;-102.718;2023-03-03T16:33:10;21.98;;;3.10;;
28373;SDS011;15616;40.148;-102.718;2023-03-03T16:35:48;17.52;;;3.80;;
28373;SDS011;15616;40.148;-102.718;2023-03-03T16:38:37;17.48;;;3.75;;
28373;SDS011;15616;40.148;-102.718;2023-03-03T16:41:12;20.52;;;3.78;;
28373;SDS011;15616;40.148;-102.718;2023-03-03T16:43:53;17.67;;;3.90;;
28373;SDS011;15616;40.148;-102.718;2023-03-03T16:46:33;17.02;;;3.20;;
28373;SDS011;15616;40.148;-102.718;2023-03-03T16:49:10;12.85;;;3.38;;
28373;SDS011;15616;40.148;-102.718;2023-03-03T16:51:48;18.98;;;3.85;;
28373;SDS011;15616;40.148;-102.718;2023-03-03T17:02:10;19.08;;;3.80;;
28373;SDS011;15616;40.148;-102.718;2023-03-03T17:10:52;15.25;;;3.10;;
28373;SDS011;15616;40.148;-102.718;2023-03-03T17:13:50;24.13;;;3.55;;
28373;SDS011;15616;40.148;-102.718;2023-03-03T17:19:41;16.65;;;3.58;;
28373;SDS011;15616;40.148;-102.718;2023-03-03T17:25:18;14.23;;;3.58;;
28373;SDS011;15616;40.148;-102.718;2023-03-03T17:28:11;16.50;;;3.58;;
28373;SDS011;15616;40.148;-102.718;2023-03-03T17:33:50;18.98;;;3.47;;
28373;SDS011;15616;40.148;-102.718;2023-03-03T17:45:22;18.25;;;3.58;;
28373;SDS011;15616;40.148;-102.718;2023-03-03T17:47:44;14.77;;;3.80;;
28373;SDS011;15616;40.148;-102.718;2023-03-03T17:50:19;30.02;;;4.10;;
28373;SDS011;15616;40.148;-102.718;2023-03-03T17:53:25;15.63;;;3.45;;
28373;SDS011;15616;40.148;-102.718;2023-03-03T17:56:30;14.95;;;3.58;;
28373;SDS011;15616;40.148;-102.718;2023-03-03T18:02:30;15.35;;;3.90;;
28373;SDS011;15616;40.148;-102.718;2023-03-03T18:06:06;16.65;;;4.00;;
28373;SDS011;15616;40.148;-102.718;2023-03-03T18:11:18;15.32;;;3.90;;
28373;SDS011;15616;40.148;-102.718;2023-03-03T18:14:06;11.32;;;2.97;;
28373;SDS011;15616;40.148;-102.718;2023-03-03T18:22:33;14.85;;;3.90;;
28373;SDS011;15616;40.148;-102.718;2023-03-03T18:25:15;13.55;;;3.65;;
28373;SDS011;15616;40.148;-102.718;2023-03-03T18:27:47;13.35;;;3.35;;
28373;SDS011;15616;40.148;-102.718;2023-03-03T18:31:15;16.85;;;3.88;;
28373;SDS011;15616;40.148;-102.718;2023-03-03T18:38:52;16.80;;;3.83;;
28373;SDS011;15616;40.148;-102.718;2023-03-03T18:41:22;16.15;;;3.47;;
28373;SDS011;15616;40.148;-102.718;2023-03-03T18:44:01;18.02;;;3.28;;
28373;SDS011;15616;40.148;-102.718;2023-03-03T18:46:48;19.58;;;3.35;;
28373;SDS011;15616;40.148;-102.718;2023-03-03T18:49:16;20.00;;;3.85;;
28373;SDS011;15616;40.148;-102.718;2023-03-03T18:56:41;15.48;;;3.30;;
28373;SDS011;15616;40.148;-102.718;2023-03-03T19:05:33;10.45;;;3.30;;
28373;SDS011;15616;40.148;-102.718;2023-03-03T19:12:50;15.23;;;3.78;;
28373;SDS011;15616;40.148;-102.718;2023-03-03T19:26:18;16.60;;;3.38;;
28373;SDS011;15616;40.148;-102.718;2023-03-03T19:29:15;19.08;;;3.90;;
28373;SDS011;15616;40.148;-102.718;2023-03-03T19:34:49;14.18;;;3.50;;
28373;SDS011;15616;40.148;-102.718;2023-03-03T19:40:26;9.02;;;3.00;;
28373;SDS011;15616;40.148;-102.718;2023-03-03T19:43:19;11.43;;;3.17;;
28373;SDS011;15616;40.148;-102.718;2023-03-03T19:57:32;11.45;;;3.35;;
28373;SDS011;15616;40.148;-102.718;2023-03-03T20:00:21;13.05;;;3.40;;
28373;SDS011;15616;40.148;-102.718;2023-03-03T20:08:22;13.15;;;3.22;;
28373;SDS011;15616;40.148;-102.718;2023-03-03T20:27:38;14.68;;;3.45;;
28373;SDS011;15616;40.148;-102.718;2023-03-03T20:38:49;8.50;;;2.95;;
28373;SDS011;15616;40.148;-102.718;2023-03-03T20:44:04;11.75;;;3.30;;
28373;SDS011;15616;40.148;-102.718;2023-03-03T20:47:52;11.43;;;3.03;;
28373;SDS011;15616;40.148;-102.718;2023-03-03T20:52:48;16.42;;;3.50;;
28373;SDS011;15616;40.148;-102.718;2023-03-03T20:55:27;12.07;;;3.25;;
28373;SDS011;15616;40.148;-102.718;2023-03-03T20:58:39;11.95;;;2.70;;
28373;SDS011;15616;40.148;-102.718;2023-03-03T21:01:08;10.10;;;3.35;;
28373;SDS011;15616;40.148;-102.718;2023-03-03T21:03:41;12.60;;;3.00;;
28373;SDS011;15616;40.148;-102.718;2023-03-03T21:06:16;11.10;;;3.38;;